createdAt,value
2023-04-15T00:00:13.622Z,0.50
2023-04-15T00:01:13.636Z,0.50
2023-04-15T00:02:13.684Z,0.50
2023-04-15T00:03:13.771Z,0.50
2023-04-15T00:04:13.717Z,0.50
2023-04-15T00:05:13.658Z,0.50
2023-04-15T00:06:13.679Z,0.49
2023-04-15T00:07:13.669Z,0.50
2023-04-15T00:08:13.664Z,0.54
2023-04-15T00:09:13.666Z,0.53
2023-04-15T00:10:13.684Z,0.50
2023-04-15T00:11:13.710Z,0.55
2023-04-15T00:12:13.720Z,0.60
2023-04-15T00:13:13.726Z,0.50
2023-04-15T00:14:13.702Z,0.47
2023-04-15T00:15:13.706Z,0.41
2023-04-15T00:16:13.718Z,0.51
2023-04-15T00:17:13.725Z,0.50
2023-04-15T00:18:13.722Z,0.50
2023-04-15T00:19:13.727Z,0.55
2023-04-15T00:20:13.728Z,0.60
2023-04-15T00:21:13.746Z,0.67
2023-04-15T00:22:13.808Z,0.77
2023-04-15T00:23:13.757Z,0.85
2023-04-15T00:24:13.762Z,0.94
2023-04-15T00:25:13.762Z,0.90
2023-04-15T00:26:13.764Z,0.82
2023-04-15T00:27:13.851Z,0.83
2023-04-15T00:28:13.770Z,0.88
2023-04-15T00:29:13.785Z,0.83
2023-04-15T00:30:13.838Z,0.85
2023-04-15T00:31:13.911Z,0.95
2023-04-15T00:32:13.989Z,1.05
2023-04-15T00:33:14.015Z,1.04
2023-04-15T00:34:14.080Z,1.05
2023-04-15T00:35:14.111Z,0.96
2023-04-15T00:36:14.178Z,0.94
2023-04-15T00:37:14.263Z,0.85
2023-04-15T00:38:14.299Z,0.77
2023-04-15T00:39:14.338Z,0.74
2023-04-15T00:40:14.358Z,0.74
2023-04-15T00:41:14.376Z,0.69
2023-04-15T00:42:14.417Z,0.71
2023-04-15T00:43:14.519Z,0.83
2023-04-15T00:44:14.523Z,1.03
2023-04-15T00:45:14.484Z,1.22
2023-04-15T00:46:14.553Z,1.39
2023-04-15T00:47:14.508Z,1.46
2023-04-15T00:48:14.533Z,1.46
2023-04-15T00:49:14.548Z,1.03
2023-04-15T00:50:14.555Z,0.82
2023-04-15T00:51:14.596Z,0.64
2023-04-15T00:52:14.607Z,0.62
2023-04-15T00:53:14.637Z,0.54
2023-04-15T00:54:14.654Z,0.50
2023-04-15T00:55:14.687Z,0.45
2023-04-15T00:56:14.714Z,0.39
2023-04-15T00:57:14.729Z,0.37
2023-04-15T00:58:14.742Z,0.39
2023-04-15T00:59:14.788Z,0.40
2023-04-15T01:00:14.782Z,0.46
2023-04-15T01:01:14.867Z,0.50
2023-04-15T01:02:14.970Z,0.50
2023-04-15T01:03:14.932Z,0.55
2023-04-15T01:04:14.920Z,0.53
2023-04-15T01:05:14.904Z,0.48
2023-04-15T01:06:14.933Z,0.48
2023-04-15T01:07:14.970Z,0.50
2023-04-15T01:08:15.013Z,0.50
2023-04-15T01:09:15.043Z,0.50
2023-04-15T01:10:15.045Z,0.50
2023-04-15T01:11:15.057Z,0.49
2023-04-15T01:12:15.072Z,0.50
2023-04-15T01:13:15.102Z,0.50
2023-04-15T01:14:15.121Z,0.50
2023-04-15T01:15:15.149Z,0.56
2023-04-15T01:16:15.176Z,0.62
2023-04-15T01:17:15.155Z,0.59
2023-04-15T01:18:15.170Z,0.62
2023-04-15T01:19:15.205Z,0.78
2023-04-15T01:20:15.212Z,0.68
2023-04-15T01:21:15.244Z,0.63
2023-04-15T01:22:15.276Z,0.73
2023-04-15T01:23:15.271Z,0.77
2023-04-15T01:24:15.284Z,0.80
2023-04-15T01:25:15.319Z,0.77
2023-04-15T01:26:15.314Z,0.86
2023-04-15T01:27:15.329Z,0.98
2023-04-15T01:28:15.348Z,1.17
2023-04-15T01:29:15.364Z,1.32
2023-04-15T01:30:15.384Z,1.42
2023-04-15T01:31:15.466Z,1.68
2023-04-15T01:32:15.410Z,1.88
2023-04-15T01:33:15.444Z,2.22
2023-04-15T01:34:15.468Z,2.67
2023-04-15T01:35:15.512Z,2.98
2023-04-15T01:36:15.533Z,3.09
2023-04-15T01:37:15.574Z,3.24
2023-04-15T01:38:15.621Z,3.44
2023-04-15T01:39:15.630Z,3.61
2023-04-15T01:40:15.659Z,3.74
2023-04-15T01:41:15.680Z,4.02
2023-04-15T01:42:15.715Z,4.16
2023-04-15T01:43:15.745Z,4.38
2023-04-15T01:44:15.788Z,4.20
2023-04-15T01:45:16.708Z,3.64
2023-04-15T01:46:15.903Z,3.58
2023-04-15T01:47:15.903Z,3.84
2023-04-15T01:48:15.931Z,3.78
2023-04-15T01:49:15.986Z,2.84
2023-04-15T01:50:16.075Z,2.69
2023-04-15T01:51:16.150Z,2.56
2023-04-15T01:52:16.229Z,2.67
2023-04-15T01:53:16.309Z,2.77
2023-04-15T01:54:16.361Z,3.06
2023-04-15T01:55:16.435Z,3.22
2023-04-15T01:56:16.958Z,3.34
2023-04-15T01:57:16.521Z,3.49
2023-04-15T01:58:16.571Z,3.02
2023-04-15T01:59:16.634Z,2.94
2023-04-15T02:00:16.694Z,3.16
2023-04-15T02:01:16.829Z,2.92
2023-04-15T02:02:16.820Z,3.10
2023-04-15T02:03:17.014Z,3.09
2023-04-15T02:04:16.950Z,2.93
2023-04-15T02:05:16.997Z,2.31
2023-04-15T02:06:17.072Z,2.28
2023-04-15T02:07:17.141Z,2.60
2023-04-15T02:08:17.203Z,2.58
2023-04-15T02:09:17.234Z,2.17
2023-04-15T02:10:17.272Z,2.22
2023-04-15T02:11:17.319Z,2.07
2023-04-15T02:12:17.364Z,2.07
2023-04-15T02:13:17.387Z,2.09
2023-04-15T02:14:17.434Z,2.03
2023-04-15T02:15:17.476Z,2.10
2023-04-15T02:16:17.619Z,2.35
2023-04-15T02:17:17.599Z,2.52
2023-04-15T02:18:17.628Z,2.50
2023-04-15T02:19:17.713Z,2.74
2023-04-15T02:20:17.721Z,2.92
2023-04-15T02:21:17.758Z,3.17
2023-04-15T02:22:17.794Z,2.95
2023-04-15T02:23:17.815Z,2.81
2023-04-15T02:24:17.905Z,3.08
2023-04-15T02:25:17.900Z,3.00
2023-04-15T02:26:17.925Z,2.75
2023-04-15T02:27:17.957Z,2.85
2023-04-15T02:28:17.989Z,3.12
2023-04-15T02:29:18.024Z,2.71
2023-04-15T02:30:18.077Z,2.48
2023-04-15T02:31:18.174Z,2.01
2023-04-15T02:32:18.265Z,1.90
2023-04-15T02:33:18.307Z,2.17
2023-04-15T02:34:18.391Z,2.53
2023-04-15T02:35:18.473Z,2.96
2023-04-15T02:36:18.537Z,3.55
2023-04-15T02:37:18.618Z,4.33
2023-04-15T02:38:18.699Z,5.18
2023-04-15T02:39:18.787Z,6.10
2023-04-15T02:40:18.922Z,6.33
2023-04-15T02:41:18.955Z,5.70
2023-04-15T02:42:19.019Z,5.72
2023-04-15T02:43:19.109Z,6.30
2023-04-15T02:44:19.174Z,6.27
2023-04-15T02:45:19.190Z,6.30
2023-04-15T02:46:19.310Z,6.50
2023-04-15T02:47:19.360Z,6.37
2023-04-15T02:48:19.464Z,6.31
2023-04-15T02:49:19.521Z,6.67
2023-04-15T02:50:19.604Z,6.87
2023-04-15T02:51:19.720Z,7.35
2023-04-15T02:52:20.720Z,7.17
2023-04-15T02:53:19.861Z,7.19
2023-04-15T02:54:19.881Z,6.87
2023-04-15T02:55:19.987Z,7.33
2023-04-15T02:56:20.057Z,6.93
2023-04-15T02:57:20.072Z,7.00
2023-04-15T02:58:20.728Z,7.58
2023-04-15T02:59:20.159Z,7.73
2023-04-15T03:00:20.195Z,8.12
2023-04-15T03:01:20.316Z,7.93
2023-04-15T03:02:20.354Z,8.08
2023-04-15T03:03:20.450Z,8.71
2023-04-15T03:04:20.445Z,9.35
2023-04-15T03:05:20.376Z,10.06
2023-04-15T03:06:20.394Z,11.16
2023-04-15T03:07:20.436Z,12.48
2023-04-15T03:08:20.438Z,12.09
2023-04-15T03:09:20.459Z,12.12
2023-04-15T03:10:20.496Z,12.27
2023-04-15T03:11:20.532Z,12.17
2023-04-15T03:12:20.590Z,10.61
2023-04-15T03:13:20.659Z,10.30
2023-04-15T03:14:20.723Z,9.65
2023-04-15T03:15:20.798Z,9.77
2023-04-15T03:16:20.918Z,9.84
2023-04-15T03:17:20.974Z,9.61
2023-04-15T03:18:21.024Z,9.75
2023-04-15T03:19:21.101Z,9.28
2023-04-15T03:20:21.269Z,9.86
2023-04-15T03:21:21.269Z,10.69
2023-04-15T03:22:21.356Z,10.64
2023-04-15T03:23:21.455Z,10.38
2023-04-15T03:24:21.504Z,9.78
2023-04-15T03:25:21.575Z,9.36
2023-04-15T03:26:21.633Z,8.77
2023-04-15T03:27:21.729Z,8.26
2023-04-15T03:28:21.789Z,8.06
2023-04-15T03:29:21.849Z,8.53
2023-04-15T03:30:21.923Z,8.73
2023-04-15T03:31:22.246Z,9.17
2023-04-15T03:32:22.078Z,9.19
2023-04-15T03:33:22.110Z,9.46
2023-04-15T03:34:22.186Z,10.63
2023-04-15T03:35:22.289Z,12.07
2023-04-15T03:36:22.306Z,13.19
2023-04-15T03:37:22.353Z,14.43
2023-04-15T03:38:22.405Z,16.19
2023-04-15T03:39:22.474Z,18.54
2023-04-15T03:40:22.536Z,21.72
2023-04-15T03:41:22.533Z,25.57
2023-04-15T03:42:22.560Z,28.48
2023-04-15T03:43:22.597Z,31.52
2023-04-15T03:44:22.600Z,34.64
2023-04-15T03:45:22.638Z,36.07
2023-04-15T03:46:22.689Z,35.05
2023-04-15T03:47:22.721Z,35.66
2023-04-15T03:48:22.834Z,35.41
2023-04-15T03:49:22.759Z,33.72
2023-04-15T03:50:22.815Z,33.66
2023-04-15T03:51:22.857Z,30.52
2023-04-15T03:52:22.931Z,29.14
2023-04-15T03:53:22.966Z,29.02
2023-04-15T03:54:22.994Z,28.95
2023-04-15T03:55:23.045Z,31.02
2023-04-15T03:56:23.044Z,31.95
2023-04-15T03:57:23.092Z,33.95
2023-04-15T03:58:23.141Z,38.61
2023-04-15T03:59:23.173Z,41.50
2023-04-15T04:00:23.228Z,41.05
2023-04-15T04:01:23.273Z,39.86
2023-04-15T04:02:23.625Z,40.13
2023-04-15T04:03:23.493Z,38.78
2023-04-15T04:04:23.613Z,38.07
2023-04-15T04:05:23.450Z,38.75
2023-04-15T04:06:23.487Z,40.17
2023-04-15T04:07:23.504Z,41.49
2023-04-15T04:08:23.518Z,42.88
2023-04-15T04:09:23.539Z,40.42
2023-04-15T04:10:23.571Z,39.20
2023-04-15T04:11:23.639Z,37.49
2023-04-15T04:12:23.614Z,34.31
2023-04-15T04:13:23.665Z,32.33
2023-04-15T04:14:23.704Z,28.32
2023-04-15T04:15:23.772Z,25.46
2023-04-15T04:16:23.859Z,24.05
2023-04-15T04:17:23.868Z,24.05
2023-04-15T04:18:23.864Z,22.90
2023-04-15T04:19:23.903Z,22.93
2023-04-15T04:20:23.939Z,23.09
2023-04-15T04:21:23.982Z,23.71
2023-04-15T04:22:24.013Z,24.61
2023-04-15T04:23:24.054Z,24.34
2023-04-15T04:24:24.093Z,25.21
2023-04-15T04:25:24.154Z,26.42
2023-04-15T04:26:24.190Z,25.91
2023-04-15T04:27:24.264Z,25.70
2023-04-15T04:28:24.293Z,24.76
2023-04-15T04:29:24.340Z,23.00
2023-04-15T04:30:24.399Z,21.84
2023-04-15T04:31:24.496Z,22.25
2023-04-15T04:32:24.563Z,24.04
2023-04-15T04:33:24.573Z,24.02
2023-04-15T04:34:24.631Z,25.75
2023-04-15T04:35:24.686Z,28.48
2023-04-15T04:36:24.732Z,32.41
2023-04-15T04:37:24.771Z,36.28
2023-04-15T04:38:24.806Z,34.63
2023-04-15T04:39:24.866Z,33.63
2023-04-15T04:40:24.931Z,28.40
2023-04-15T04:41:24.958Z,24.77
2023-04-15T04:42:25.015Z,20.02
2023-04-15T04:43:25.108Z,19.32
2023-04-15T04:44:25.148Z,19.41
2023-04-15T04:45:25.230Z,17.76
2023-04-15T04:46:25.280Z,17.41
2023-04-15T04:47:25.369Z,17.03
2023-04-15T04:48:25.406Z,15.35
2023-04-15T04:49:25.462Z,14.06
2023-04-15T04:50:25.549Z,13.80
2023-04-15T04:51:25.624Z,14.16
2023-04-15T04:52:25.716Z,15.39
2023-04-15T04:53:25.783Z,16.65
2023-04-15T04:54:25.855Z,19.35
2023-04-15T04:55:25.953Z,24.56
2023-04-15T04:56:26.025Z,28.61
2023-04-15T04:57:26.105Z,30.27
2023-04-15T04:58:26.155Z,28.73
2023-04-15T04:59:26.253Z,27.09
2023-04-15T05:00:26.303Z,23.62
2023-04-15T05:01:26.358Z,21.15
2023-04-15T05:02:26.557Z,20.10
2023-04-15T05:03:26.616Z,17.30
2023-04-15T05:04:26.569Z,15.82
2023-04-15T05:05:26.651Z,16.38
2023-04-15T05:06:26.714Z,16.11
2023-04-15T05:07:26.792Z,15.67
2023-04-15T05:08:26.829Z,17.22
2023-04-15T05:09:26.886Z,18.45
2023-04-15T05:10:26.937Z,18.93
2023-04-15T05:11:26.992Z,19.51
2023-04-15T05:12:27.040Z,20.28
2023-04-15T05:13:27.074Z,22.20
2023-04-15T05:14:27.108Z,22.23
2023-04-15T05:15:27.146Z,23.70
2023-04-15T05:16:27.141Z,25.79
2023-04-15T05:17:27.242Z,26.24
2023-04-15T05:18:27.231Z,25.80
2023-04-15T05:19:27.283Z,23.78
2023-04-15T05:20:27.329Z,23.58
2023-04-15T05:21:27.362Z,24.43
2023-04-15T05:22:27.396Z,26.77
2023-04-15T05:23:27.424Z,26.77
2023-04-15T05:24:27.472Z,28.92
2023-04-15T05:25:27.511Z,26.09
2023-04-15T05:26:27.593Z,25.35
2023-04-15T05:27:27.600Z,24.83
2023-04-15T05:28:27.648Z,23.92
2023-04-15T05:29:27.690Z,23.05
2023-04-15T05:30:27.731Z,22.29
2023-04-15T05:31:28.028Z,22.12
2023-04-15T05:32:27.891Z,22.23
2023-04-15T05:33:27.901Z,21.23
2023-04-15T05:34:27.950Z,20.33
2023-04-15T05:35:27.983Z,20.33
2023-04-15T05:36:28.004Z,20.61
2023-04-15T05:37:28.032Z,21.58
2023-04-15T05:38:28.051Z,21.38
2023-04-15T05:39:28.069Z,17.95
2023-04-15T05:40:28.111Z,16.53
2023-04-15T05:41:28.111Z,16.52
2023-04-15T05:42:28.122Z,14.51
2023-04-15T05:43:28.138Z,12.76
2023-04-15T05:44:28.167Z,12.16
2023-04-15T05:45:28.190Z,13.23
2023-04-15T05:46:28.260Z,15.32
2023-04-15T05:47:28.287Z,14.81
2023-04-15T05:48:29.263Z,16.15
2023-04-15T05:49:28.299Z,18.02
2023-04-15T05:50:28.321Z,15.60
2023-04-15T05:51:28.328Z,14.58
2023-04-15T05:52:28.344Z,14.64
2023-04-15T05:53:28.379Z,13.82
2023-04-15T05:54:28.369Z,13.84
2023-04-15T05:55:28.383Z,13.87
2023-04-15T05:56:28.398Z,14.19
2023-04-15T05:57:28.415Z,14.66
2023-04-15T05:58:28.429Z,14.84
2023-04-15T05:59:28.473Z,15.49
2023-04-15T06:00:28.514Z,16.26
2023-04-15T06:01:28.674Z,15.10
2023-04-15T06:02:28.627Z,14.51
2023-04-15T06:03:28.704Z,13.76
2023-04-15T06:04:28.833Z,11.14
2023-04-15T06:05:28.658Z,7.71
2023-04-15T06:06:28.675Z,6.26
2023-04-15T06:07:28.711Z,5.79
2023-04-15T06:08:28.769Z,4.82
2023-04-15T06:09:28.853Z,3.34
2023-04-15T06:10:29.014Z,2.69
2023-04-15T06:11:28.953Z,2.60
2023-04-15T06:12:29.009Z,1.78
2023-04-15T06:13:29.070Z,1.56
2023-04-15T06:14:29.120Z,1.22
2023-04-15T06:15:29.171Z,0.91
2023-04-15T06:16:29.227Z,0.95
2023-04-15T06:17:29.347Z,1.05
2023-04-15T06:18:29.321Z,1.19
2023-04-15T06:19:29.983Z,0.82
2023-04-15T06:20:29.466Z,0.55
2023-04-15T06:21:29.519Z,0.50
2023-04-15T06:22:29.629Z,0.69
2023-04-15T06:23:29.616Z,0.71
2023-04-15T06:24:29.656Z,0.42
2023-04-15T06:25:29.696Z,0.52
2023-04-15T06:26:29.722Z,0.43
2023-04-15T06:27:29.764Z,0.57
2023-04-15T06:28:29.787Z,0.64
2023-04-15T06:29:29.804Z,0.75
2023-04-15T06:30:29.840Z,0.81
2023-04-15T06:31:29.926Z,1.13
2023-04-15T06:32:29.970Z,1.56
2023-04-15T06:33:29.972Z,2.16
2023-04-15T06:34:29.994Z,2.61
2023-04-15T06:35:30.061Z,3.37
2023-04-15T06:36:30.063Z,3.94
2023-04-15T06:37:30.061Z,3.90
2023-04-15T06:38:30.075Z,3.12
2023-04-15T06:39:30.086Z,1.55
2023-04-15T06:40:30.115Z,1.09
2023-04-15T06:41:30.135Z,0.80
2023-04-15T06:42:30.150Z,0.91
2023-04-15T06:43:30.162Z,0.71
2023-04-15T06:44:31.577Z,0.57
2023-04-15T06:45:30.198Z,0.46
2023-04-15T06:46:30.133Z,0.52
2023-04-15T06:47:30.141Z,0.47
2023-04-15T06:48:30.110Z,0.35
2023-04-15T06:49:30.087Z,0.61
2023-04-15T06:50:30.080Z,0.34
2023-04-15T06:51:30.085Z,0.34
2023-04-15T06:52:30.050Z,0.34
2023-04-15T06:53:30.071Z,0.34
2023-04-15T06:54:30.027Z,0.34
2023-04-15T06:55:30.022Z,0.34
2023-04-15T06:56:30.020Z,0.34
2023-04-15T06:57:31.563Z,0.34
2023-04-15T06:58:29.980Z,0.34
2023-04-15T06:59:29.972Z,0.34
2023-04-15T07:00:30.003Z,0.34
2023-04-15T07:01:30.076Z,0.34
2023-04-15T07:02:30.261Z,0.34
2023-04-15T07:03:32.569Z,0.34
2023-04-15T07:04:29.998Z,0.34
2023-04-15T07:05:29.902Z,0.34
2023-04-15T07:06:29.890Z,0.34
2023-04-15T07:07:29.900Z,0.34
2023-04-15T07:08:29.858Z,0.34
2023-04-15T07:09:29.874Z,0.34
2023-04-15T07:10:29.830Z,0.34
2023-04-15T07:11:29.815Z,0.34
2023-04-15T07:12:29.820Z,0.38
2023-04-15T07:13:29.785Z,0.34
2023-04-15T07:14:29.773Z,0.34
2023-04-15T07:15:29.773Z,0.40
2023-04-15T07:16:30.013Z,0.43
2023-04-15T07:17:29.745Z,0.34
2023-04-15T07:18:29.706Z,0.34
2023-04-15T07:19:29.683Z,0.34
2023-04-15T07:20:29.705Z,0.34
2023-04-15T07:21:29.661Z,0.34
2023-04-15T07:22:29.646Z,0.34
2023-04-15T07:23:29.657Z,0.34
2023-04-15T07:24:29.618Z,0.34
2023-04-15T07:25:29.608Z,0.34
2023-04-15T07:26:29.581Z,0.34
2023-04-15T07:27:29.572Z,0.45
2023-04-15T07:28:29.543Z,0.51
2023-04-15T07:29:29.536Z,0.65
2023-04-15T07:30:29.522Z,0.77
2023-04-15T07:31:29.589Z,1.39
2023-04-15T07:32:29.526Z,0.75
2023-04-15T07:33:29.482Z,0.56
2023-04-15T07:34:31.447Z,0.53
2023-04-15T07:35:29.462Z,0.34
2023-04-15T07:36:29.443Z,0.39
2023-04-15T07:37:29.420Z,0.46
2023-04-15T07:38:29.415Z,0.35
2023-04-15T07:39:29.425Z,0.34
2023-04-15T07:40:29.402Z,0.34
2023-04-15T07:41:29.375Z,0.34
2023-04-15T07:42:29.387Z,0.34
2023-04-15T07:43:29.368Z,0.34
2023-04-15T07:44:29.355Z,0.34
2023-04-15T07:45:29.351Z,0.34
2023-04-15T07:46:29.381Z,0.34
2023-04-15T07:47:29.374Z,0.34
2023-04-15T07:48:29.346Z,0.34
2023-04-15T07:49:29.327Z,0.34
2023-04-15T07:50:29.318Z,0.58
2023-04-15T07:51:29.310Z,0.69
2023-04-15T07:52:29.301Z,0.91
2023-04-15T07:53:29.288Z,1.54
2023-04-15T07:54:29.292Z,2.80
2023-04-15T07:55:29.297Z,4.12
2023-04-15T07:56:29.269Z,2.25
2023-04-15T07:57:29.271Z,1.94
2023-04-15T07:58:29.266Z,1.06
2023-04-15T07:59:29.254Z,0.62
2023-04-15T08:00:29.223Z,0.51
2023-04-15T08:01:29.213Z,0.69
2023-04-15T08:02:29.349Z,0.62
2023-04-15T08:03:29.418Z,0.61
2023-04-15T08:04:29.277Z,0.53
2023-04-15T08:05:29.120Z,0.60
2023-04-15T08:06:29.116Z,0.86
2023-04-15T08:07:29.080Z,1.71
2023-04-15T08:08:29.063Z,2.88
2023-04-15T08:09:29.025Z,4.18
2023-04-15T08:10:29.000Z,5.81
2023-04-15T08:11:29.008Z,11.73
2023-04-15T08:12:28.979Z,11.17
2023-04-15T08:13:28.920Z,3.61
2023-04-15T08:14:28.916Z,1.14
2023-04-15T08:15:28.925Z,0.79
2023-04-15T08:16:28.959Z,0.55
2023-04-15T08:17:28.971Z,0.70
2023-04-15T08:18:28.905Z,0.60
2023-04-15T08:19:28.891Z,0.49
2023-04-15T08:20:28.917Z,0.50
2023-04-15T08:21:28.965Z,0.47
2023-04-15T08:22:29.058Z,0.34
2023-04-15T08:23:29.045Z,0.39
2023-04-15T08:24:29.049Z,0.50
2023-04-15T08:25:29.066Z,0.56
2023-04-15T08:26:29.059Z,0.50
2023-04-15T08:27:29.066Z,0.49
2023-04-15T08:28:29.030Z,0.52
2023-04-15T08:29:29.022Z,0.43
2023-04-15T08:30:29.020Z,0.40
2023-04-15T08:31:29.045Z,0.60
2023-04-15T08:32:29.091Z,0.52
2023-04-15T08:33:28.966Z,0.61
2023-04-15T08:34:28.942Z,0.60
2023-04-15T08:35:28.915Z,0.74
2023-04-15T08:36:28.883Z,0.88
2023-04-15T08:37:28.870Z,0.97
2023-04-15T08:38:28.873Z,1.15
2023-04-15T08:39:28.846Z,1.63
2023-04-15T08:40:28.839Z,1.58
2023-04-15T08:41:28.832Z,1.67
2023-04-15T08:42:28.816Z,3.04
2023-04-15T08:43:28.849Z,6.62
2023-04-15T08:44:28.841Z,8.11
2023-04-15T08:45:28.865Z,11.49
2023-04-15T08:46:28.894Z,13.00
2023-04-15T08:47:28.934Z,7.31
2023-04-15T08:48:28.957Z,10.51
2023-04-15T08:49:28.975Z,11.86
2023-04-15T08:50:29.005Z,6.90
2023-04-15T08:51:29.006Z,10.51
2023-04-15T08:52:29.005Z,5.68
2023-04-15T08:53:29.015Z,3.71
2023-04-15T08:54:28.977Z,5.94
2023-04-15T08:55:28.970Z,4.40
2023-04-15T08:56:29.018Z,3.64
2023-04-15T08:57:29.016Z,3.36
2023-04-15T08:58:29.026Z,4.97
2023-04-15T08:59:29.041Z,3.41
2023-04-15T09:00:29.038Z,2.20
2023-04-15T09:01:29.079Z,2.98
2023-04-15T09:02:29.121Z,3.63
2023-04-15T09:03:29.142Z,3.69
2023-04-15T09:04:29.116Z,2.89
2023-04-15T09:05:29.087Z,3.12
2023-04-15T09:06:29.088Z,2.86
2023-04-15T09:07:29.100Z,2.42
2023-04-15T09:08:29.125Z,1.64
2023-04-15T09:09:29.165Z,1.29
2023-04-15T09:10:29.174Z,1.16
2023-04-15T09:11:29.230Z,2.05
2023-04-15T09:12:29.212Z,2.50
2023-04-15T09:13:29.253Z,3.56
2023-04-15T09:14:29.282Z,5.32
2023-04-15T09:15:29.323Z,4.85
2023-04-15T09:16:29.333Z,3.00
2023-04-15T09:17:29.320Z,1.84
2023-04-15T09:18:29.285Z,2.03
2023-04-15T09:19:29.261Z,2.89
2023-04-15T09:20:29.248Z,1.86
2023-04-15T09:21:29.232Z,1.90
2023-04-15T09:22:29.223Z,1.49
2023-04-15T09:23:29.194Z,1.42
2023-04-15T09:24:29.185Z,0.85
2023-04-15T09:25:29.162Z,0.97
2023-04-15T09:26:29.150Z,0.62
2023-04-15T09:27:29.130Z,0.45
2023-04-15T09:28:29.104Z,0.53
2023-04-15T09:29:29.079Z,1.05
2023-04-15T09:30:29.098Z,0.34
2023-04-15T09:31:29.031Z,0.34
2023-04-15T09:32:29.079Z,0.34
2023-04-15T09:33:28.942Z,0.34
2023-04-15T09:34:28.916Z,0.34
2023-04-15T09:35:28.885Z,0.34
2023-04-15T09:36:28.826Z,0.34
2023-04-15T09:37:32.496Z,0.34
2023-04-15T09:38:28.728Z,0.34
2023-04-15T09:39:28.681Z,0.34
2023-04-15T09:40:28.629Z,0.34
2023-04-15T09:41:28.636Z,0.34
2023-04-15T09:42:28.530Z,0.34
2023-04-15T09:43:28.492Z,0.34
2023-04-15T09:44:28.436Z,0.34
2023-04-15T09:45:29.510Z,0.34
2023-04-15T09:46:28.379Z,0.34
2023-04-15T09:47:28.353Z,0.39
2023-04-15T09:48:28.256Z,0.34
2023-04-15T09:49:28.244Z,0.34
2023-04-15T09:50:28.175Z,0.34
2023-04-15T09:51:28.132Z,0.34
2023-04-15T09:52:28.084Z,0.34
2023-04-15T09:53:29.346Z,0.34
2023-04-15T09:54:27.993Z,0.34
2023-04-15T09:55:27.962Z,0.34
2023-04-15T09:56:27.890Z,0.34
2023-04-15T09:57:27.843Z,0.34
2023-04-15T09:58:27.790Z,0.34
2023-04-15T09:59:27.741Z,0.34
2023-04-15T10:00:27.703Z,0.34
2023-04-15T10:01:27.664Z,0.34
2023-04-15T10:02:27.657Z,0.34
2023-04-15T10:03:27.756Z,0.34
2023-04-15T10:04:27.553Z,0.34
2023-04-15T10:05:28.012Z,0.34
2023-04-15T10:06:27.611Z,0.34
2023-04-15T10:07:27.583Z,0.34
2023-04-15T10:08:27.566Z,0.34
2023-04-15T10:09:27.537Z,0.34
2023-04-15T10:10:27.534Z,0.34
2023-04-15T10:11:28.657Z,0.34
2023-04-15T10:12:27.469Z,0.34
2023-04-15T10:13:27.424Z,0.34
2023-04-15T10:14:27.366Z,0.34
2023-04-15T10:15:27.328Z,0.34
2023-04-15T10:16:27.474Z,0.34
2023-04-15T10:17:27.686Z,0.34
2023-04-15T10:18:27.180Z,0.34
2023-04-15T10:19:27.148Z,0.34
2023-04-15T10:20:27.114Z,0.34
2023-04-15T10:21:27.058Z,0.34
2023-04-15T10:22:27.018Z,0.34
2023-04-15T10:23:26.977Z,0.34
2023-04-15T10:24:26.936Z,0.34
2023-04-15T10:25:26.899Z,0.34
2023-04-15T10:26:26.853Z,0.39
2023-04-15T10:27:26.840Z,0.34
2023-04-15T10:28:26.854Z,0.34
2023-04-15T10:29:26.889Z,0.34
2023-04-15T10:30:26.916Z,0.42
2023-04-15T10:31:26.971Z,0.82
2023-04-15T10:32:27.008Z,3.02
2023-04-15T10:33:27.006Z,7.95
2023-04-15T10:34:27.026Z,6.85
2023-04-15T10:35:27.090Z,8.09
2023-04-15T10:36:27.021Z,15.84
2023-04-15T10:37:27.033Z,5.74
2023-04-15T10:38:27.050Z,4.20
2023-04-15T10:39:27.126Z,1.58
2023-04-15T10:40:27.108Z,0.61
2023-04-15T10:41:27.123Z,0.62
2023-04-15T10:42:27.132Z,0.62
2023-04-15T10:43:27.079Z,1.08
2023-04-15T10:44:27.035Z,1.95
2023-04-15T10:45:27.009Z,0.97
2023-04-15T10:46:27.004Z,0.54
2023-04-15T10:47:26.970Z,0.51
2023-04-15T10:48:26.909Z,1.06
2023-04-15T10:49:26.927Z,1.38
2023-04-15T10:50:26.942Z,0.79
2023-04-15T10:51:26.960Z,0.71
2023-04-15T10:52:26.916Z,0.48
2023-04-15T10:53:26.900Z,0.43
2023-04-15T10:54:26.885Z,0.34
2023-04-15T10:55:26.900Z,0.41
2023-04-15T10:56:26.890Z,0.67
2023-04-15T10:57:26.853Z,1.22
2023-04-15T10:58:26.834Z,1.76
2023-04-15T10:59:26.848Z,0.42
2023-04-15T11:00:26.885Z,0.34
2023-04-15T11:01:26.896Z,0.48
2023-04-15T11:02:27.009Z,0.34
2023-04-15T11:03:27.042Z,0.34
2023-04-15T11:04:27.061Z,0.34
2023-04-15T11:05:26.997Z,0.34
2023-04-15T11:06:27.013Z,0.35
2023-04-15T11:07:27.060Z,1.93
2023-04-15T11:08:27.044Z,4.12
2023-04-15T11:09:27.079Z,3.48
2023-04-15T11:10:27.102Z,1.55
2023-04-15T11:11:27.122Z,0.94
2023-04-15T11:12:27.138Z,0.34
2023-04-15T11:13:27.172Z,0.34
2023-04-15T11:14:27.201Z,0.45
2023-04-15T11:15:27.257Z,0.55
2023-04-15T11:16:27.289Z,0.66
2023-04-15T11:17:27.379Z,0.67
2023-04-15T11:18:27.274Z,0.36
2023-04-15T11:19:27.254Z,0.34
2023-04-15T11:20:27.258Z,0.34
2023-04-15T11:21:27.254Z,0.34
2023-04-15T11:22:27.288Z,0.34
2023-04-15T11:23:27.352Z,0.34
2023-04-15T11:24:27.374Z,0.48
2023-04-15T11:25:27.379Z,26.62
2023-04-15T11:26:27.411Z,1000.00
2023-04-15T11:27:27.422Z,1000.00
2023-04-15T11:28:27.465Z,1000.00
2023-04-15T11:29:27.525Z,1000.00
2023-04-15T11:30:27.562Z,1000.00
2023-04-15T11:31:27.675Z,1000.00
2023-04-15T11:32:27.706Z,1000.00
2023-04-15T11:33:27.762Z,1000.00
2023-04-15T11:34:27.831Z,1000.00
2023-04-15T11:35:27.901Z,1000.00
2023-04-15T11:36:27.981Z,1000.00
2023-04-15T11:37:27.972Z,1000.00
2023-04-15T11:38:28.035Z,1000.00
2023-04-15T11:39:28.111Z,1000.00
2023-04-15T11:40:28.147Z,1000.00
2023-04-15T11:41:28.203Z,1000.00
2023-04-15T11:42:39.251Z,1000.00
2023-04-15T11:43:28.260Z,1000.00
2023-04-15T11:44:28.266Z,1000.00
2023-04-15T11:45:28.325Z,1000.00
2023-04-15T11:46:28.301Z,1000.00
2023-04-15T11:47:28.325Z,1000.00
2023-04-15T11:48:28.324Z,1000.00
2023-04-15T11:49:28.327Z,1000.00
2023-04-15T11:50:28.352Z,1000.00
2023-04-15T11:51:28.365Z,1000.00
2023-04-15T11:52:28.396Z,1000.00
2023-04-15T11:53:28.412Z,1000.00
2023-04-15T11:54:28.435Z,1000.00
2023-04-15T11:55:28.860Z,1000.00
2023-04-15T11:56:28.462Z,1000.00
2023-04-15T11:57:28.486Z,1000.00
2023-04-15T11:58:28.470Z,1000.00
2023-04-15T11:59:39.029Z,1000.00
2023-04-15T12:00:28.499Z,1000.00
2023-04-15T12:01:28.517Z,1000.00
2023-04-15T12:02:28.653Z,1000.00
2023-04-15T12:03:28.766Z,1000.00
2023-04-15T12:04:28.822Z,1000.00
2023-04-15T12:05:28.654Z,1000.00
2023-04-15T12:06:28.680Z,1000.00
2023-04-15T12:07:28.720Z,1000.00
2023-04-15T12:08:28.728Z,1000.00
2023-04-15T12:09:29.976Z,1000.00
2023-04-15T12:10:28.754Z,1000.00
2023-04-15T12:11:28.785Z,1000.00
2023-04-15T12:12:28.783Z,1000.00
2023-04-15T12:13:28.799Z,1000.00
2023-04-15T12:14:28.832Z,1000.00
2023-04-15T12:15:28.996Z,1000.00
2023-04-15T12:16:28.888Z,1000.00
2023-04-15T12:17:28.911Z,1000.00
2023-04-15T12:18:28.915Z,1000.00
2023-04-15T12:19:28.926Z,1000.00
2023-04-15T12:20:28.952Z,1000.00
2023-04-15T12:21:28.982Z,1000.00
2023-04-15T12:22:28.999Z,1000.00
2023-04-15T12:23:29.027Z,1000.00
2023-04-15T12:24:29.074Z,1000.00
2023-04-15T12:25:29.056Z,1000.00
2023-04-15T12:26:29.089Z,1000.00
2023-04-15T12:27:29.879Z,1000.00
2023-04-15T12:28:29.118Z,1000.00
2023-04-15T12:29:29.271Z,1000.00
2023-04-15T12:30:29.171Z,1000.00
2023-04-15T12:31:29.227Z,1000.00
2023-04-15T12:32:29.210Z,1000.00
2023-04-15T12:33:29.219Z,1000.00
2023-04-15T12:34:29.238Z,1000.00
2023-04-15T12:35:29.243Z,1000.00
2023-04-15T12:36:29.255Z,1000.00
2023-04-15T12:37:29.258Z,1000.00
2023-04-15T12:38:29.279Z,1000.00
2023-04-15T12:39:30.672Z,1000.00
2023-04-15T12:40:29.520Z,1000.00
2023-04-15T12:41:29.598Z,1000.00
2023-04-15T12:42:29.690Z,1000.00
2023-04-15T12:43:29.791Z,1000.00
2023-04-15T12:44:29.876Z,1000.00
2023-04-15T12:45:30.088Z,1000.00
2023-04-15T12:46:30.062Z,1000.00
2023-04-15T12:47:30.100Z,1000.00
2023-04-15T12:48:30.162Z,1000.00
2023-04-15T12:49:30.218Z,1000.00
2023-04-15T12:50:30.309Z,1000.00
2023-04-15T12:51:30.357Z,1000.00
2023-04-15T12:52:30.456Z,1000.00
2023-04-15T12:53:30.525Z,1000.00
2023-04-15T12:54:30.594Z,1000.00
2023-04-15T12:55:30.654Z,1000.00
2023-04-15T12:56:30.725Z,1000.00
2023-04-15T12:57:30.819Z,1000.00
2023-04-15T12:58:30.861Z,1000.00
2023-04-15T12:59:30.985Z,1000.00
2023-04-15T13:00:31.037Z,1000.00
2023-04-15T13:01:31.174Z,1000.00
2023-04-15T13:02:31.316Z,1000.00